createdAt,value
2019-03-13T00:02:30.203Z,4.61
2019-03-13T00:07:51.872Z,4.62
2019-03-13T00:13:13.279Z,4.63
2019-03-13T00:18:34.842Z,4.61
2019-03-13T00:23:55.791Z,4.61
2019-03-13T00:29:17.174Z,4.60
2019-03-13T00:34:38.279Z,4.55
2019-03-13T00:39:59.253Z,4.57
2019-03-13T00:45:20.212Z,4.61
2019-03-13T00:50:41.348Z,4.67
2019-03-13T00:56:02.383Z,4.63
2019-03-13T01:01:43.130Z,4.63
2019-03-13T01:07:07.015Z,4.65
2019-03-13T01:12:27.811Z,4.57
2019-03-13T01:17:48.862Z,4.58
2019-03-13T01:23:09.793Z,4.62
2019-03-13T01:28:31.190Z,4.63
2019-03-13T01:33:54.052Z,4.59
2019-03-13T01:39:15.214Z,4.57
2019-03-13T01:44:36.707Z,4.53
2019-03-13T01:49:58.282Z,4.59
2019-03-13T01:55:19.330Z,4.54
2019-03-13T02:00:40.490Z,4.51
2019-03-13T02:06:01.861Z,4.50
2019-03-13T02:11:22.786Z,4.54
2019-03-13T02:16:44.063Z,4.63
2019-03-13T02:22:05.380Z,4.65
2019-03-13T02:27:26.443Z,4.76
2019-03-13T02:32:47.628Z,4.75
2019-03-13T02:38:08.558Z,4.80
2019-03-13T02:43:29.908Z,4.78
2019-03-13T02:48:50.821Z,4.90
2019-03-13T02:54:12.286Z,4.92
2019-03-13T02:59:33.272Z,4.98
2019-03-13T03:04:55.972Z,4.94
2019-03-13T03:10:17.389Z,4.99
2019-03-13T03:15:38.722Z,4.90
2019-03-13T03:21:00.101Z,5.08
2019-03-13T03:26:21.150Z,5.06
2019-03-13T03:31:42.402Z,5.05
2019-03-13T03:37:03.922Z,5.00
2019-03-13T03:42:25.416Z,5.06
2019-03-13T03:47:46.541Z,5.16
2019-03-13T03:53:07.388Z,5.32
2019-03-13T03:58:29.791Z,5.46
2019-03-13T04:03:51.245Z,5.39
2019-03-13T04:09:12.557Z,5.43
2019-03-13T04:14:33.912Z,5.53
2019-03-13T04:19:54.833Z,5.54
2019-03-13T04:25:30.369Z,5.42
2019-03-13T04:30:51.338Z,5.51
2019-03-13T04:36:12.687Z,5.44
2019-03-13T04:41:33.629Z,5.48
2019-03-13T04:46:55.075Z,5.51
2019-03-13T04:52:16.282Z,5.39
2019-03-13T04:57:37.326Z,5.33
2019-03-13T05:02:58.437Z,5.32
2019-03-13T05:09:10.233Z,5.21
2019-03-13T05:14:32.861Z,5.13
2019-03-13T05:19:54.451Z,5.16
2019-03-13T05:25:15.669Z,5.14
2019-03-13T05:30:36.639Z,5.08
2019-03-13T05:35:57.955Z,5.25
2019-03-13T05:41:19.270Z,5.31
2019-03-13T05:46:40.488Z,5.27
2019-03-13T05:52:01.689Z,5.37
2019-03-13T05:57:22.563Z,5.52
2019-03-13T06:02:43.841Z,5.64
2019-03-13T06:08:05.091Z,5.64
2019-03-13T06:13:26.962Z,5.50
2019-03-13T06:18:48.112Z,5.55
2019-03-13T06:24:09.339Z,5.44
2019-03-13T06:29:31.919Z,5.60
2019-03-13T06:34:53.323Z,5.49
2019-03-13T06:40:14.652Z,5.51
2019-03-13T06:45:36.003Z,5.55
2019-03-13T06:50:57.356Z,5.70
2019-03-13T06:56:18.399Z,5.80
2019-03-13T07:02:04.878Z,5.64
2019-03-13T07:07:39.645Z,5.66
2019-03-13T07:13:20.106Z,5.80
2019-03-13T07:18:55.836Z,5.58
2019-03-13T07:24:42.552Z,5.66
2019-03-13T07:30:22.322Z,5.54
2019-03-13T07:36:17.913Z,5.69
2019-03-13T07:41:57.462Z,5.79
2019-03-13T07:47:41.009Z,5.97
2019-03-13T07:53:12.443Z,6.31
2019-03-13T07:58:55.872Z,6.72
2019-03-13T08:04:45.490Z,6.50
2019-03-13T08:10:26.880Z,6.80
2019-03-13T08:16:10.266Z,7.14
2019-03-13T08:21:56.805Z,7.34
2019-03-13T08:27:55.684Z,7.45
2019-03-13T08:33:27.350Z,7.47
2019-03-13T08:39:10.946Z,7.47
2019-03-13T08:44:50.209Z,7.59
2019-03-13T08:50:30.870Z,7.58
2019-03-13T08:55:59.245Z,7.61
2019-03-13T09:01:33.204Z,7.63
2019-03-13T09:07:23.014Z,7.72
2019-03-13T09:13:01.779Z,8.09
2019-03-13T09:18:51.295Z,8.07
2019-03-13T09:24:21.029Z,7.91
2019-03-13T09:30:07.523Z,7.91
2019-03-13T09:35:53.978Z,8.11
2019-03-13T09:41:23.964Z,8.56
2019-03-13T09:46:53.329Z,8.68
2019-03-13T09:52:43.197Z,8.91
2019-03-13T09:58:22.082Z,9.35
2019-03-13T10:04:02.784Z,9.69
2019-03-13T10:09:36.988Z,9.68
2019-03-13T10:15:03.382Z,9.11
2019-03-13T10:20:42.652Z,9.59
2019-03-13T10:26:29.543Z,9.77
2019-03-13T10:31:59.774Z,9.55
2019-03-13T10:37:38.821Z,9.68
2019-03-13T10:43:25.396Z,9.83
2019-03-13T10:49:04.738Z,10.08
2019-03-13T10:54:54.342Z,10.39
2019-03-13T11:00:38.226Z,10.71
2019-03-13T11:06:27.638Z,10.51
2019-03-13T11:11:55.093Z,10.07
2019-03-13T11:17:41.993Z,9.83
2019-03-13T11:23:12.814Z,9.97
2019-03-13T11:28:59.383Z,9.59
2019-03-13T11:34:42.872Z,9.47
2019-03-13T11:40:30.321Z,9.73
2019-03-13T11:46:14.160Z,9.95
2019-03-13T11:52:03.928Z,10.22
2019-03-13T11:57:50.657Z,10.33
2019-03-13T12:03:27.498Z,10.33
2019-03-13T12:09:23.155Z,9.97
2019-03-13T12:15:06.629Z,9.95
2019-03-13T12:20:45.923Z,9.71
2019-03-13T12:26:35.485Z,10.08
2019-03-13T12:32:15.466Z,10.08
2019-03-13T12:37:58.978Z,10.29
2019-03-13T12:43:29.075Z,10.27
2019-03-13T12:49:08.158Z,10.13
2019-03-13T12:54:36.741Z,9.75
2019-03-13T13:00:05.735Z,9.35
2019-03-13T13:05:42.435Z,9.16
2019-03-13T13:11:21.164Z,9.25
2019-03-13T13:16:59.183Z,9.25
2019-03-13T13:22:20.141Z,9.13
2019-03-13T13:27:41.901Z,9.29
2019-03-13T13:33:03.164Z,9.37
2019-03-13T13:38:24.223Z,9.53
2019-03-13T13:43:45.520Z,9.66
2019-03-13T13:49:06.580Z,9.51
2019-03-13T13:54:27.480Z,9.54
2019-03-13T13:59:49.213Z,9.58
2019-03-13T14:05:10.855Z,9.73
2019-03-13T14:10:31.932Z,9.51
2019-03-13T14:15:53.267Z,9.65
2019-03-13T14:21:14.367Z,9.55
2019-03-13T14:26:44.047Z,9.59
2019-03-13T14:32:05.531Z,9.48
2019-03-13T14:37:26.444Z,9.48
2019-03-13T14:42:48.809Z,9.31
2019-03-13T14:48:10.223Z,9.32
2019-03-13T14:53:31.311Z,9.26
2019-03-13T14:58:52.642Z,9.25
2019-03-13T15:04:13.833Z,9.38
2019-03-13T15:09:34.812Z,9.47
2019-03-13T15:14:55.820Z,9.44
2019-03-13T15:20:17.059Z,9.00
2019-03-13T15:25:38.068Z,9.08
2019-03-13T15:30:59.350Z,8.89
2019-03-13T15:36:20.800Z,8.74
2019-03-13T15:41:42.306Z,8.48
2019-03-13T15:47:03.719Z,8.27
2019-03-13T15:52:26.363Z,8.11
2019-03-13T15:57:47.760Z,8.19
2019-03-13T16:03:08.967Z,7.98
2019-03-13T16:08:30.267Z,8.03
2019-03-13T16:13:51.614Z,7.87
2019-03-13T16:19:14.305Z,7.90
2019-03-13T16:24:35.636Z,7.81
2019-03-13T16:29:57.111Z,7.79
2019-03-13T16:35:18.256Z,7.64
2019-03-13T16:40:39.764Z,7.55
2019-03-13T16:46:01.283Z,7.38
2019-03-13T16:51:22.684Z,7.34
2019-03-13T16:56:46.478Z,7.36
2019-03-13T17:02:08.052Z,7.23
2019-03-13T17:07:40.618Z,7.04
2019-03-13T17:13:05.156Z,6.84
2019-03-13T17:18:25.524Z,6.63
2019-03-13T17:23:46.778Z,6.53
2019-03-13T17:29:08.174Z,6.54
2019-03-13T17:34:30.351Z,6.48
2019-03-13T17:39:51.802Z,6.46
2019-03-13T17:45:15.412Z,6.38
2019-03-13T17:50:36.576Z,6.11
2019-03-13T17:55:57.631Z,6.06
2019-03-13T18:01:19.743Z,5.87
2019-03-13T18:06:40.567Z,6.06
2019-03-13T18:12:02.153Z,5.96
2019-03-13T18:17:23.122Z,5.98
2019-03-13T18:22:44.922Z,5.95
2019-03-13T18:28:05.967Z,6.03
2019-03-13T18:33:27.400Z,5.83
2019-03-13T18:38:48.223Z,5.86
2019-03-13T18:44:09.457Z,5.72
2019-03-13T18:49:30.449Z,5.55
2019-03-13T18:54:55.992Z,5.71
2019-03-13T19:00:22.553Z,5.60
2019-03-13T19:05:43.585Z,5.51
2019-03-13T19:11:05.521Z,5.43
2019-03-13T19:16:26.682Z,5.35
2019-03-13T19:21:48.004Z,5.06
2019-03-13T19:27:09.605Z,5.10
2019-03-13T19:32:30.902Z,5.06
2019-03-13T19:37:52.708Z,5.04
2019-03-13T19:43:14.026Z,4.91
2019-03-13T19:48:35.439Z,4.86
2019-03-13T19:53:56.861Z,4.81
2019-03-13T19:59:17.787Z,4.77
2019-03-13T20:04:47.381Z,4.61
2019-03-13T20:10:02.252Z,4.67
2019-03-13T20:15:24.092Z,4.51
2019-03-13T20:20:45.402Z,4.50
2019-03-13T20:26:06.567Z,4.43
2019-03-13T20:31:27.377Z,4.51
2019-03-13T20:36:49.100Z,4.38
2019-03-13T20:42:13.221Z,4.21
2019-03-13T20:47:34.775Z,4.12
2019-03-13T20:52:56.027Z,3.75
2019-03-13T20:58:17.245Z,3.66
2019-03-13T21:03:38.420Z,3.42
2019-03-13T21:08:59.540Z,3.30
2019-03-13T21:14:22.244Z,3.26
2019-03-13T21:19:43.153Z,3.34
2019-03-13T21:25:05.141Z,3.24
2019-03-13T21:30:26.750Z,2.97
2019-03-13T21:35:48.081Z,2.84
2019-03-13T21:41:09.660Z,2.80
2019-03-13T21:46:31.208Z,2.88
2019-03-13T21:51:52.447Z,3.06
2019-03-13T21:57:13.868Z,3.01
2019-03-13T22:02:36.532Z,2.99
2019-03-13T22:07:57.867Z,3.04
2019-03-13T22:13:18.837Z,3.13
2019-03-13T22:18:40.162Z,3.18
2019-03-13T22:24:01.470Z,2.32
2019-03-13T22:29:22.972Z,3.45
2019-03-13T22:34:43.900Z,3.54
2019-03-13T22:40:05.855Z,3.73
2019-03-13T22:45:26.624Z,3.84
2019-03-13T22:50:47.855Z,3.97
2019-03-13T22:56:09.440Z,3.92
2019-03-13T23:01:30.501Z,4.10
2019-03-13T23:06:51.755Z,4.20
2019-03-13T23:12:12.634Z,4.23
2019-03-13T23:17:33.786Z,4.24
2019-03-13T23:22:54.838Z,4.09
2019-03-13T23:28:16.754Z,3.94
2019-03-13T23:33:38.147Z,3.95
2019-03-13T23:38:59.378Z,4.00
2019-03-13T23:44:20.693Z,3.93
2019-03-13T23:49:41.833Z,3.99
2019-03-13T23:55:03.302Z,3.91
